KJYO

Leesburg Executive Airport

Leesburg, Virginia, USA
METAR KJYO 191615Z AUTO 14004KT 7SM OVC022 03/01 A3018 RMK AO2
Observed Flight Rules
Jan-19 @ 16:15 UTC (27 minutes ago) Marginal Visual Flight Rules
Wind Visibility Clouds
140° at 4 knots 7 miles
  • Overcast at 2,200' AGL
Temperatures Readings
Current 3°C / 37°F
Dewpoint 1°C / 34°F
Humidity 87%
Altimeter 30.18" Hg
Pressure 1022.02 hPa
Elevation 119
METAR KJYO 191615Z AUTO 14004KT 7SM OVC022 03/01 A3018 RMK AO2
Observed Flight Rules
Jan-19 @ 16:15 UTC
(27 minutes ago)
MVFR
Wind Visibility
140° at 4 knots 7 miles
Clouds
  • Overcast at 2,200' AGL
Temperature Dewpoint
3°C / 37°F 1°C / 34°F
Humidity Altimeter Pressure
87% 30.18" Hg 1022.02 hPa